sensor_id;sensor_type;location;lat;lon;timestamp;temperature;humidity
16301;DHT22;8258;51.020;4.248;2022-12-16T00:01:05;-3.50;99.90
16301;DHT22;8258;51.020;4.248;2022-12-16T00:03:32;-3.50;99.90
16301;DHT22;8258;51.020;4.248;2022-12-16T00:05:59;-3.50;99.90
16301;DHT22;8258;51.020;4.248;2022-12-16T00:08:28;-3.50;99.90
16301;DHT22;8258;51.020;4.248;2022-12-16T00:10:57;-3.50;99.90
16301;DHT22;8258;51.020;4.248;2022-12-16T00:13:24;-3.50;99.90
16301;DHT22;8258;51.020;4.248;2022-12-16T00:15:51;-3.50;99.90
16301;DHT22;8258;51.020;4.248;2022-12-16T00:18:19;-3.50;99.90
16301;DHT22;8258;51.020;4.248;2022-12-16T00:20:47;-3.50;99.90
16301;DHT22;8258;51.020;4.248;2022-12-16T00:23:14;-3.50;99.90
16301;DHT22;8258;51.020;4.248;2022-12-16T00:25:41;-3.50;99.90
16301;DHT22;8258;51.020;4.248;2022-12-16T00:28:09;-3.50;99.90
16301;DHT22;8258;51.020;4.248;2022-12-16T00:30:37;-3.60;99.90
16301;DHT22;8258;51.020;4.248;2022-12-16T00:33:04;-3.60;99.90
16301;DHT22;8258;51.020;4.248;2022-12-16T00:35:32;-3.70;99.90
16301;DHT22;8258;51.020;4.248;2022-12-16T00:37:59;-3.80;99.90
16301;DHT22;8258;51.020;4.248;2022-12-16T00:40:26;-3.60;99.90
16301;DHT22;8258;51.020;4.248;2022-12-16T00:42:53;-3.60;99.90
16301;DHT22;8258;51.020;4.248;2022-12-16T00:45:20;-3.50;99.90
16301;DHT22;8258;51.020;4.248;2022-12-16T00:47:49;-3.40;99.90
16301;DHT22;8258;51.020;4.248;2022-12-16T00:50:16;-3.40;99.90
16301;DHT22;8258;51.020;4.248;2022-12-16T00:52:45;-3.50;99.90
16301;DHT22;8258;51.020;4.248;2022-12-16T00:55:12;-3.50;99.90
16301;DHT22;8258;51.020;4.248;2022-12-16T00:57:39;-3.60;99.90
16301;DHT22;8258;51.020;4.248;2022-12-16T01:00:07;-3.60;99.90
16301;DHT22;8258;51.020;4.248;2022-12-16T01:02:37;-3.60;99.90
16301;DHT22;8258;51.020;4.248;2022-12-16T01:05:05;-3.60;99.90
16301;DHT22;8258;51.020;4.248;2022-12-16T01:07:32;-3.60;99.90
16301;DHT22;8258;51.020;4.248;2022-12-16T01:10:01;-3.60;99.90
16301;DHT22;8258;51.020;4.248;2022-12-16T01:12:28;-3.70;99.90
16301;DHT22;8258;51.020;4.248;2022-12-16T01:14:54;-3.70;99.90
16301;DHT22;8258;51.020;4.248;2022-12-16T01:17:21;-3.80;99.90
16301;DHT22;8258;51.020;4.248;2022-12-16T01:19:50;-3.90;99.90
16301;DHT22;8258;51.020;4.248;2022-12-16T01:22:17;-3.80;99.90
16301;DHT22;8258;51.020;4.248;2022-12-16T01:24:44;-3.70;99.90
16301;DHT22;8258;51.020;4.248;2022-12-16T01:27:12;-3.80;99.90
16301;DHT22;8258;51.020;4.248;2022-12-16T01:29:40;-3.70;99.90
16301;DHT22;8258;51.020;4.248;2022-12-16T01:32:08;-3.70;99.90
16301;DHT22;8258;51.020;4.248;2022-12-16T01:34:37;-3.70;99.90
16301;DHT22;8258;51.020;4.248;2022-12-16T01:37:04;-3.60;99.90
16301;DHT22;8258;51.020;4.248;2022-12-16T01:39:31;-3.60;99.90
16301;DHT22;8258;51.020;4.248;2022-12-16T01:41:58;-3.60;99.90
16301;DHT22;8258;51.020;4.248;2022-12-16T01:44:26;-3.60;99.90
16301;DHT22;8258;51.020;4.248;2022-12-16T01:46:56;-3.60;99.90
16301;DHT22;8258;51.020;4.248;2022-12-16T01:49:26;-3.50;99.90
16301;DHT22;8258;51.020;4.248;2022-12-16T01:51:56;-3.50;99.90
16301;DHT22;8258;51.020;4.248;2022-12-16T01:54:28;-3.50;99.90
16301;DHT22;8258;51.020;4.248;2022-12-16T01:57:01;-3.60;99.90
16301;DHT22;8258;51.020;4.248;2022-12-16T01:59:32;-3.60;99.90
16301;DHT22;8258;51.020;4.248;2022-12-16T02:02:01;-3.70;99.90
16301;DHT22;8258;51.020;4.248;2022-12-16T02:04:29;-3.60;99.90
16301;DHT22;8258;51.020;4.248;2022-12-16T02:06:56;-3.70;99.90
16301;DHT22;8258;51.020;4.248;2022-12-16T02:09:23;-3.40;99.90
16301;DHT22;8258;51.020;4.248;2022-12-16T02:12:09;-3.30;99.90
16301;DHT22;8258;51.020;4.248;2022-12-16T02:15:00;-3.10;99.90
16301;DHT22;8258;51.020;4.248;2022-12-16T02:17:35;-3.00;99.90
16301;DHT22;8258;51.020;4.248;2022-12-16T02:20:35;-2.90;99.90
16301;DHT22;8258;51.020;4.248;2022-12-16T02:23:21;-2.80;99.90
16301;DHT22;8258;51.020;4.248;2022-12-16T02:26:21;-2.70;99.90
16301;DHT22;8258;51.020;4.248;2022-12-16T02:29:08;-2.70;99.90
16301;DHT22;8258;51.020;4.248;2022-12-16T02:31:53;-2.60;99.90
16301;DHT22;8258;51.020;4.248;2022-12-16T02:34:27;-2.50;99.90
16301;DHT22;8258;51.020;4.248;2022-12-16T02:37:04;-2.40;99.90
16301;DHT22;8258;51.020;4.248;2022-12-16T02:39:37;-2.40;99.90
16301;DHT22;8258;51.020;4.248;2022-12-16T02:42:10;-2.30;99.90
16301;DHT22;8258;51.020;4.248;2022-12-16T02:44:46;-2.20;99.90
16301;DHT22;8258;51.020;4.248;2022-12-16T02:47:16;-2.10;99.90
16301;DHT22;8258;51.020;4.248;2022-12-16T02:49:48;-2.00;99.90
16301;DHT22;8258;51.020;4.248;2022-12-16T02:52:18;-1.90;99.90
16301;DHT22;8258;51.020;4.248;2022-12-16T02:54:48;-1.90;99.90
16301;DHT22;8258;51.020;4.248;2022-12-16T02:57:49;-2.00;99.90
16301;DHT22;8258;51.020;4.248;2022-12-16T03:00:19;-1.90;99.90
16301;DHT22;8258;51.020;4.248;2022-12-16T03:02:53;-1.80;99.90
16301;DHT22;8258;51.020;4.248;2022-12-16T03:05:24;-1.70;99.90
16301;DHT22;8258;51.020;4.248;2022-12-16T03:07:52;-1.70;99.90
16301;DHT22;8258;51.020;4.248;2022-12-16T03:10:25;-1.60;99.90
16301;DHT22;8258;51.020;4.248;2022-12-16T03:12:54;-1.70;99.90
16301;DHT22;8258;51.020;4.248;2022-12-16T03:15:24;-1.80;99.90
16301;DHT22;8258;51.020;4.248;2022-12-16T03:17:54;-1.60;99.90
16301;DHT22;8258;51.020;4.248;2022-12-16T03:20:26;-1.50;99.90
16301;DHT22;8258;51.020;4.248;2022-12-16T03:22:58;-1.30;99.90
16301;DHT22;8258;51.020;4.248;2022-12-16T03:25:27;-1.10;99.90
16301;DHT22;8258;51.020;4.248;2022-12-16T03:28:00;-1.00;99.90
16301;DHT22;8258;51.020;4.248;2022-12-16T03:30:34;-0.90;99.90
16301;DHT22;8258;51.020;4.248;2022-12-16T03:33:06;-0.90;99.90
16301;DHT22;8258;51.020;4.248;2022-12-16T03:35:37;-0.80;99.90
16301;DHT22;8258;51.020;4.248;2022-12-16T03:38:09;-0.70;99.90
16301;DHT22;8258;51.020;4.248;2022-12-16T03:40:37;-0.60;99.90
16301;DHT22;8258;51.020;4.248;2022-12-16T03:43:07;-0.60;99.90
16301;DHT22;8258;51.020;4.248;2022-12-16T03:45:37;-0.50;99.90
16301;DHT22;8258;51.020;4.248;2022-12-16T03:48:08;-0.40;99.90
16301;DHT22;8258;51.020;4.248;2022-12-16T03:50:36;-0.40;99.90
16301;DHT22;8258;51.020;4.248;2022-12-16T03:53:04;-0.30;99.90
16301;DHT22;8258;51.020;4.248;2022-12-16T03:55:31;-0.30;99.90
16301;DHT22;8258;51.020;4.248;2022-12-16T03:57:58;-0.20;99.90
16301;DHT22;8258;51.020;4.248;2022-12-16T04:00:25;-0.10;99.90
16301;DHT22;8258;51.020;4.248;2022-12-16T04:02:52;-0.10;99.90
16301;DHT22;8258;51.020;4.248;2022-12-16T04:05:20;-0.10;99.90
16301;DHT22;8258;51.020;4.248;2022-12-16T04:07:47;-0.10;99.90
16301;DHT22;8258;51.020;4.248;2022-12-16T04:10:14;-0.20;99.90
16301;DHT22;8258;51.020;4.248;2022-12-16T04:12:41;-0.30;99.90
16301;DHT22;8258;51.020;4.248;2022-12-16T04:15:26;-0.30;99.90
16301;DHT22;8258;51.020;4.248;2022-12-16T04:18:14;-0.20;99.90
16301;DHT22;8258;51.020;4.248;2022-12-16T04:21:00;-0.30;99.90
16301;DHT22;8258;51.020;4.248;2022-12-16T04:23:48;-0.40;99.90
16301;DHT22;8258;51.020;4.248;2022-12-16T04:26:33;-0.40;99.90
16301;DHT22;8258;51.020;4.248;2022-12-16T04:29:21;-0.50;99.90
16301;DHT22;8258;51.020;4.248;2022-12-16T04:31:48;-0.50;99.90
16301;DHT22;8258;51.020;4.248;2022-12-16T04:34:15;-0.40;99.90
16301;DHT22;8258;51.020;4.248;2022-12-16T04:36:51;-0.40;99.90
16301;DHT22;8258;51.020;4.248;2022-12-16T04:39:36;-0.50;99.90
16301;DHT22;8258;51.020;4.248;2022-12-16T04:42:21;-0.60;99.90
16301;DHT22;8258;51.020;4.248;2022-12-16T04:45:06;-0.60;99.90
16301;DHT22;8258;51.020;4.248;2022-12-16T04:47:51;-0.60;99.90
16301;DHT22;8258;51.020;4.248;2022-12-16T04:50:36;-0.60;99.90
16301;DHT22;8258;51.020;4.248;2022-12-16T04:53:21;-0.50;99.90
16301;DHT22;8258;51.020;4.248;2022-12-16T04:56:06;-0.50;99.90
16301;DHT22;8258;51.020;4.248;2022-12-16T04:58:50;-0.50;99.90
16301;DHT22;8258;51.020;4.248;2022-12-16T05:01:34;-0.40;99.90
16301;DHT22;8258;51.020;4.248;2022-12-16T05:04:18;-0.30;99.90
16301;DHT22;8258;51.020;4.248;2022-12-16T05:07:03;-0.40;99.90
16301;DHT22;8258;51.020;4.248;2022-12-16T05:09:48;-0.40;99.90
16301;DHT22;8258;51.020;4.248;2022-12-16T05:12:33;-0.30;99.90
16301;DHT22;8258;51.020;4.248;2022-12-16T05:15:28;-0.40;99.90
16301;DHT22;8258;51.020;4.248;2022-12-16T05:18:14;-0.60;99.90
16301;DHT22;8258;51.020;4.248;2022-12-16T05:20:59;-0.70;99.90
16301;DHT22;8258;51.020;4.248;2022-12-16T05:23:43;-0.80;99.90
16301;DHT22;8258;51.020;4.248;2022-12-16T05:26:29;-0.90;99.90
16301;DHT22;8258;51.020;4.248;2022-12-16T05:29:13;-1.00;99.90
16301;DHT22;8258;51.020;4.248;2022-12-16T05:31:58;-1.00;99.90
16301;DHT22;8258;51.020;4.248;2022-12-16T05:34:42;-1.10;99.90
16301;DHT22;8258;51.020;4.248;2022-12-16T05:37:26;-1.10;99.90
16301;DHT22;8258;51.020;4.248;2022-12-16T05:40:11;-1.10;99.90
16301;DHT22;8258;51.020;4.248;2022-12-16T05:42:57;-1.20;99.90
16301;DHT22;8258;51.020;4.248;2022-12-16T05:45:41;-1.20;99.90
16301;DHT22;8258;51.020;4.248;2022-12-16T05:48:26;-1.30;99.90
16301;DHT22;8258;51.020;4.248;2022-12-16T05:51:10;-1.30;99.90
16301;DHT22;8258;51.020;4.248;2022-12-16T05:53:55;-1.40;99.90
16301;DHT22;8258;51.020;4.248;2022-12-16T05:56:39;-1.50;99.90
16301;DHT22;8258;51.020;4.248;2022-12-16T05:59:25;-1.60;99.90
16301;DHT22;8258;51.020;4.248;2022-12-16T06:02:09;-1.70;99.90
16301;DHT22;8258;51.020;4.248;2022-12-16T06:04:54;-1.70;99.90
16301;DHT22;8258;51.020;4.248;2022-12-16T06:07:38;-1.70;99.90
16301;DHT22;8258;51.020;4.248;2022-12-16T06:10:22;-1.80;99.90
16301;DHT22;8258;51.020;4.248;2022-12-16T06:13:06;-1.80;99.90
16301;DHT22;8258;51.020;4.248;2022-12-16T06:15:52;-2.00;99.90
16301;DHT22;8258;51.020;4.248;2022-12-16T06:18:36;-2.00;99.90
16301;DHT22;8258;51.020;4.248;2022-12-16T06:21:20;-2.10;99.90
16301;DHT22;8258;51.020;4.248;2022-12-16T06:24:05;-2.20;99.90
16301;DHT22;8258;51.020;4.248;2022-12-16T06:26:50;-2.20;99.90
16301;DHT22;8258;51.020;4.248;2022-12-16T06:29:34;-2.20;99.90
16301;DHT22;8258;51.020;4.248;2022-12-16T06:32:19;-2.20;99.90
16301;DHT22;8258;51.020;4.248;2022-12-16T06:35:05;-2.10;99.90
16301;DHT22;8258;51.020;4.248;2022-12-16T06:37:49;-2.20;99.90
16301;DHT22;8258;51.020;4.248;2022-12-16T06:40:33;-2.30;99.90
16301;DHT22;8258;51.020;4.248;2022-12-16T06:43:17;-2.40;99.90
16301;DHT22;8258;51.020;4.248;2022-12-16T06:46:01;-2.50;99.90
16301;DHT22;8258;51.020;4.248;2022-12-16T06:48:47;-2.50;99.90
16301;DHT22;8258;51.020;4.248;2022-12-16T06:51:31;-2.60;99.90
16301;DHT22;8258;51.020;4.248;2022-12-16T06:54:15;-2.60;99.90
16301;DHT22;8258;51.020;4.248;2022-12-16T06:56:56;-2.60;99.90
16301;DHT22;8258;51.020;4.248;2022-12-16T06:59:40;-2.60;99.90
16301;DHT22;8258;51.020;4.248;2022-12-16T07:02:24;-2.70;99.90
16301;DHT22;8258;51.020;4.248;2022-12-16T07:05:10;-2.80;99.90
16301;DHT22;8258;51.020;4.248;2022-12-16T07:07:54;-2.80;99.90
16301;DHT22;8258;51.020;4.248;2022-12-16T07:10:38;-2.80;99.90
16301;DHT22;8258;51.020;4.248;2022-12-16T07:13:23;-2.80;99.90
16301;DHT22;8258;51.020;4.248;2022-12-16T07:16:07;-2.90;99.90
16301;DHT22;8258;51.020;4.248;2022-12-16T07:18:51;-2.90;99.90
16301;DHT22;8258;51.020;4.248;2022-12-16T07:21:36;-2.90;99.90
16301;DHT22;8258;51.020;4.248;2022-12-16T07:24:21;-2.90;99.90
16301;DHT22;8258;51.020;4.248;2022-12-16T07:27:05;-2.90;99.90
16301;DHT22;8258;51.020;4.248;2022-12-16T07:29:49;-2.90;99.90
16301;DHT22;8258;51.020;4.248;2022-12-16T07:32:48;-2.90;99.90
16301;DHT22;8258;51.020;4.248;2022-12-16T07:35:33;-2.70;99.90
16301;DHT22;8258;51.020;4.248;2022-12-16T07:38:18;-2.60;99.90
16301;DHT22;8258;51.020;4.248;2022-12-16T07:41:03;-2.50;99.90
16301;DHT22;8258;51.020;4.248;2022-12-16T07:43:47;-2.50;99.90
16301;DHT22;8258;51.020;4.248;2022-12-16T07:46:31;-2.60;99.90
16301;DHT22;8258;51.020;4.248;2022-12-16T07:49:15;-2.70;99.90
16301;DHT22;8258;51.020;4.248;2022-12-16T07:52:00;-2.70;99.90
16301;DHT22;8258;51.020;4.248;2022-12-16T07:54:45;-2.70;99.90
16301;DHT22;8258;51.020;4.248;2022-12-16T07:57:30;-2.70;99.90
16301;DHT22;8258;51.020;4.248;2022-12-16T08:00:19;-2.60;99.90
16301;DHT22;8258;51.020;4.248;2022-12-16T08:03:03;-2.60;99.90
16301;DHT22;8258;51.020;4.248;2022-12-16T08:05:48;-2.70;99.90
16301;DHT22;8258;51.020;4.248;2022-12-16T08:08:32;-2.70;99.90
16301;DHT22;8258;51.020;4.248;2022-12-16T08:11:18;-2.70;99.90
16301;DHT22;8258;51.020;4.248;2022-12-16T08:14:02;-2.60;99.90
16301;DHT22;8258;51.020;4.248;2022-12-16T08:16:46;-2.10;99.90
16301;DHT22;8258;51.020;4.248;2022-12-16T08:19:31;-1.60;99.90
16301;DHT22;8258;51.020;4.248;2022-12-16T08:22:15;-1.00;99.90
16301;DHT22;8258;51.020;4.248;2022-12-16T08:24:59;-0.40;99.90
16301;DHT22;8258;51.020;4.248;2022-12-16T08:27:52;0.20;99.90
16301;DHT22;8258;51.020;4.248;2022-12-16T08:30:37;0.70;99.90
16301;DHT22;8258;51.020;4.248;2022-12-16T08:33:21;1.30;99.90
16301;DHT22;8258;51.020;4.248;2022-12-16T08:36:06;1.70;99.90
16301;DHT22;8258;51.020;4.248;2022-12-16T08:38:50;2.20;99.90
16301;DHT22;8258;51.020;4.248;2022-12-16T08:41:34;2.80;99.90
16301;DHT22;8258;51.020;4.248;2022-12-16T08:44:20;3.00;99.90
16301;DHT22;8258;51.020;4.248;2022-12-16T08:47:05;2.20;99.90
16301;DHT22;8258;51.020;4.248;2022-12-16T08:49:49;1.40;99.90
16301;DHT22;8258;51.020;4.248;2022-12-16T08:52:48;1.10;99.90
16301;DHT22;8258;51.020;4.248;2022-12-16T08:55:32;0.40;99.90
16301;DHT22;8258;51.020;4.248;2022-12-16T08:58:17;0.20;99.90
16301;DHT22;8258;51.020;4.248;2022-12-16T09:01:02;0.10;99.90
16301;DHT22;8258;51.020;4.248;2022-12-16T09:03:49;0.10;99.90
16301;DHT22;8258;51.020;4.248;2022-12-16T09:06:33;0.20;99.90
16301;DHT22;8258;51.020;4.248;2022-12-16T09:09:18;0.30;99.90
16301;DHT22;8258;51.020;4.248;2022-12-16T09:12:03;0.30;99.90
16301;DHT22;8258;51.020;4.248;2022-12-16T09:14:47;0.30;99.90
16301;DHT22;8258;51.020;4.248;2022-12-16T09:17:33;0.30;99.90
16301;DHT22;8258;51.020;4.248;2022-12-16T09:20:17;0.30;99.90
16301;DHT22;8258;51.020;4.248;2022-12-16T09:23:01;0.20;99.90
16301;DHT22;8258;51.020;4.248;2022-12-16T09:25:46;0.30;99.90
16301;DHT22;8258;51.020;4.248;2022-12-16T09:28:30;0.40;99.90
16301;DHT22;8258;51.020;4.248;2022-12-16T09:31:14;0.50;99.90
16301;DHT22;8258;51.020;4.248;2022-12-16T09:34:00;0.50;99.90
16301;DHT22;8258;51.020;4.248;2022-12-16T09:36:44;0.70;99.90
16301;DHT22;8258;51.020;4.248;2022-12-16T09:39:29;0.80;99.90
16301;DHT22;8258;51.020;4.248;2022-12-16T09:42:20;0.80;99.90
16301;DHT22;8258;51.020;4.248;2022-12-16T09:45:14;0.90;99.90
16301;DHT22;8258;51.020;4.248;2022-12-16T09:48:04;0.80;99.90
16301;DHT22;8258;51.020;4.248;2022-12-16T09:50:53;0.80;99.90
16301;DHT22;8258;51.020;4.248;2022-12-16T09:53:39;1.00;99.90
16301;DHT22;8258;51.020;4.248;2022-12-16T09:56:29;1.10;99.90
16301;DHT22;8258;51.020;4.248;2022-12-16T09:59:18;1.30;99.90
16301;DHT22;8258;51.020;4.248;2022-12-16T10:02:09;1.50;99.90
16301;DHT22;8258;51.020;4.248;2022-12-16T10:05:00;1.70;99.90
16301;DHT22;8258;51.020;4.248;2022-12-16T10:07:51;1.80;99.90
16301;DHT22;8258;51.020;4.248;2022-12-16T10:10:48;1.90;99.90
16301;DHT22;8258;51.020;4.248;2022-12-16T10:13:38;2.30;99.90
16301;DHT22;8258;51.020;4.248;2022-12-16T10:16:28;2.70;99.90
16301;DHT22;8258;51.020;4.248;2022-12-16T10:19:25;3.60;99.90
16301;DHT22;8258;51.020;4.248;2022-12-16T10:22:16;5.60;99.90
16301;DHT22;8258;51.020;4.248;2022-12-16T10:25:12;7.60;99.90
16301;DHT22;8258;51.020;4.248;2022-12-16T10:28:04;9.00;99.90
16301;DHT22;8258;51.020;4.248;2022-12-16T10:30:53;10.10;99.90
16301;DHT22;8258;51.020;4.248;2022-12-16T10:33:38;10.80;99.90
16301;DHT22;8258;51.020;4.248;2022-12-16T10:36:25;11.30;99.90
16301;DHT22;8258;51.020;4.248;2022-12-16T10:39:18;11.70;99.90
16301;DHT22;8258;51.020;4.248;2022-12-16T10:42:16;11.80;99.90
16301;DHT22;8258;51.020;4.248;2022-12-16T10:45:04;12.10;99.90
16301;DHT22;8258;51.020;4.248;2022-12-16T10:47:51;12.30;99.90
16301;DHT22;8258;51.020;4.248;2022-12-16T10:50:35;12.50;99.90
16301;DHT22;8258;51.020;4.248;2022-12-16T10:53:25;12.30;99.90
16301;DHT22;8258;51.020;4.248;2022-12-16T10:56:21;12.50;99.90
16301;DHT22;8258;51.020;4.248;2022-12-16T10:59:10;12.30;99.90
16301;DHT22;8258;51.020;4.248;2022-12-16T11:02:18;12.80;99.90
16301;DHT22;8258;51.020;4.248;2022-12-16T11:05:28;12.90;99.90
16301;DHT22;8258;51.020;4.248;2022-12-16T11:08:26;12.80;99.90
16301;DHT22;8258;51.020;4.248;2022-12-16T11:11:13;12.90;99.90
16301;DHT22;8258;51.020;4.248;2022-12-16T11:14:21;13.20;99.90
16301;DHT22;8258;51.020;4.248;2022-12-16T11:17:15;13.40;99.30
16301;DHT22;8258;51.020;4.248;2022-12-16T11:20:20;13.20;99.30
16301;DHT22;8258;51.020;4.248;2022-12-16T11:23:13;13.10;98.80
16301;DHT22;8258;51.020;4.248;2022-12-16T11:26:10;12.90;98.90
16301;DHT22;8258;51.020;4.248;2022-12-16T11:29:08;13.10;99.80
16301;DHT22;8258;51.020;4.248;2022-12-16T11:32:00;13.20;99.40
16301;DHT22;8258;51.020;4.248;2022-12-16T11:34:51;13.00;99.20
16301;DHT22;8258;51.020;4.248;2022-12-16T11:37:37;13.30;99.30
16301;DHT22;8258;51.020;4.248;2022-12-16T11:40:23;13.60;98.60
16301;DHT22;8258;51.020;4.248;2022-12-16T11:43:10;13.80;97.00
16301;DHT22;8258;51.020;4.248;2022-12-16T11:45:57;13.50;98.00
16301;DHT22;8258;51.020;4.248;2022-12-16T11:48:47;13.80;97.30
16301;DHT22;8258;51.020;4.248;2022-12-16T11:51:35;13.60;97.10
16301;DHT22;8258;51.020;4.248;2022-12-16T11:54:23;13.60;97.90
16301;DHT22;8258;51.020;4.248;2022-12-16T11:57:17;13.90;97.10
16301;DHT22;8258;51.020;4.248;2022-12-16T12:00:04;14.10;96.40
16301;DHT22;8258;51.020;4.248;2022-12-16T12:02:55;14.00;95.90
16301;DHT22;8258;51.020;4.248;2022-12-16T12:05:43;14.10;95.60
16301;DHT22;8258;51.020;4.248;2022-12-16T12:08:38;13.60;95.70
16301;DHT22;8258;51.020;4.248;2022-12-16T12:11:27;13.20;96.00
16301;DHT22;8258;51.020;4.248;2022-12-16T12:14:20;11.90;98.80
16301;DHT22;8258;51.020;4.248;2022-12-16T12:17:19;10.50;99.90
16301;DHT22;8258;51.020;4.248;2022-12-16T12:20:28;9.40;99.90
16301;DHT22;8258;51.020;4.248;2022-12-16T12:23:35;8.20;99.90
16301;DHT22;8258;51.020;4.248;2022-12-16T12:26:26;7.60;99.90
16301;DHT22;8258;51.020;4.248;2022-12-16T12:29:19;7.50;99.90
16301;DHT22;8258;51.020;4.248;2022-12-16T12:32:16;7.20;99.90
16301;DHT22;8258;51.020;4.248;2022-12-16T12:35:16;7.00;99.90
16301;DHT22;8258;51.020;4.248;2022-12-16T12:38:07;6.80;99.90
16301;DHT22;8258;51.020;4.248;2022-12-16T12:40:58;6.70;99.90
16301;DHT22;8258;51.020;4.248;2022-12-16T12:43:54;6.60;99.90
16301;DHT22;8258;51.020;4.248;2022-12-16T12:46:44;6.50;99.90
16301;DHT22;8258;51.020;4.248;2022-12-16T12:49:35;6.50;99.90
16301;DHT22;8258;51.020;4.248;2022-12-16T12:52:36;6.30;99.90
16301;DHT22;8258;51.020;4.248;2022-12-16T12:55:27;6.20;99.90
16301;DHT22;8258;51.020;4.248;2022-12-16T12:58:17;6.10;99.90
16301;DHT22;8258;51.020;4.248;2022-12-16T13:01:04;6.10;99.90
16301;DHT22;8258;51.020;4.248;2022-12-16T13:03:55;6.10;99.90
16301;DHT22;8258;51.020;4.248;2022-12-16T13:06:50;6.10;99.90
16301;DHT22;8258;51.020;4.248;2022-12-16T13:09:36;6.10;99.90
16301;DHT22;8258;51.020;4.248;2022-12-16T13:12:27;6.00;99.90
16301;DHT22;8258;51.020;4.248;2022-12-16T13:15:32;6.10;99.90
16301;DHT22;8258;51.020;4.248;2022-12-16T13:18:28;6.00;99.90
16301;DHT22;8258;51.020;4.248;2022-12-16T13:21:41;6.10;99.90
16301;DHT22;8258;51.020;4.248;2022-12-16T13:24:39;6.20;99.90
16301;DHT22;8258;51.020;4.248;2022-12-16T13:27:24;6.30;99.90
16301;DHT22;8258;51.020;4.248;2022-12-16T13:30:23;7.20;99.90
16301;DHT22;8258;51.020;4.248;2022-12-16T13:33:24;9.10;99.90
16301;DHT22;8258;51.020;4.248;2022-12-16T13:36:11;10.70;99.90
16301;DHT22;8258;51.020;4.248;2022-12-16T13:38:59;11.70;99.90
16301;DHT22;8258;51.020;4.248;2022-12-16T13:41:48;12.30;98.60
16301;DHT22;8258;51.020;4.248;2022-12-16T13:44:55;12.50;97.40
16301;DHT22;8258;51.020;4.248;2022-12-16T13:48:03;12.70;96.20
16301;DHT22;8258;51.020;4.248;2022-12-16T13:50:49;13.10;96.30
16301;DHT22;8258;51.020;4.248;2022-12-16T13:53:40;13.20;96.00
16301;DHT22;8258;51.020;4.248;2022-12-16T13:56:32;13.20;96.20
16301;DHT22;8258;51.020;4.248;2022-12-16T13:59:20;13.30;95.80
16301;DHT22;8258;51.020;4.248;2022-12-16T14:02:18;13.10;96.30
16301;DHT22;8258;51.020;4.248;2022-12-16T14:05:15;12.90;96.30
16301;DHT22;8258;51.020;4.248;2022-12-16T14:08:01;12.10;96.60
16301;DHT22;8258;51.020;4.248;2022-12-16T14:10:55;11.30;98.40
16301;DHT22;8258;51.020;4.248;2022-12-16T14:13:43;11.00;99.30
16301;DHT22;8258;51.020;4.248;2022-12-16T14:16:37;11.10;99.60
16301;DHT22;8258;51.020;4.248;2022-12-16T14:19:30;10.50;99.90
16301;DHT22;8258;51.020;4.248;2022-12-16T14:22:29;9.70;99.90
16301;DHT22;8258;51.020;4.248;2022-12-16T14:25:20;8.90;99.90
16301;DHT22;8258;51.020;4.248;2022-12-16T14:28:11;8.20;99.90
16301;DHT22;8258;51.020;4.248;2022-12-16T14:31:04;7.50;99.90
16301;DHT22;8258;51.020;4.248;2022-12-16T14:33:51;6.80;99.90
16301;DHT22;8258;51.020;4.248;2022-12-16T14:36:38;6.50;99.90
16301;DHT22;8258;51.020;4.248;2022-12-16T14:39:28;6.20;99.90
16301;DHT22;8258;51.020;4.248;2022-12-16T14:42:22;6.00;99.90
16301;DHT22;8258;51.020;4.248;2022-12-16T14:45:25;5.70;99.90
16301;DHT22;8258;51.020;4.248;2022-12-16T14:48:24;5.60;99.90
16301;DHT22;8258;51.020;4.248;2022-12-16T14:51:27;5.40;99.90
16301;DHT22;8258;51.020;4.248;2022-12-16T14:54:20;5.30;99.90
16301;DHT22;8258;51.020;4.248;2022-12-16T14:57:11;5.10;99.90
16301;DHT22;8258;51.020;4.248;2022-12-16T15:00:08;4.90;99.90
16301;DHT22;8258;51.020;4.248;2022-12-16T15:02:55;4.80;99.90
16301;DHT22;8258;51.020;4.248;2022-12-16T15:05:41;4.60;99.90
16301;DHT22;8258;51.020;4.248;2022-12-16T15:08:28;4.60;99.90
16301;DHT22;8258;51.020;4.248;2022-12-16T15:11:17;4.30;99.90
16301;DHT22;8258;51.020;4.248;2022-12-16T15:14:23;4.10;99.90
16301;DHT22;8258;51.020;4.248;2022-12-16T15:17:18;4.00;99.90
16301;DHT22;8258;51.020;4.248;2022-12-16T15:20:03;3.90;99.90
16301;DHT22;8258;51.020;4.248;2022-12-16T15:22:48;3.80;99.90
16301;DHT22;8258;51.020;4.248;2022-12-16T15:25:33;3.70;99.90
16301;DHT22;8258;51.020;4.248;2022-12-16T15:28:22;3.60;99.90
16301;DHT22;8258;51.020;4.248;2022-12-16T15:31:23;3.50;99.90
16301;DHT22;8258;51.020;4.248;2022-12-16T15:34:27;3.30;99.90
16301;DHT22;8258;51.020;4.248;2022-12-16T15:37:36;3.20;99.90
16301;DHT22;8258;51.020;4.248;2022-12-16T15:40:24;3.00;99.90
16301;DHT22;8258;51.020;4.248;2022-12-16T15:43:25;2.80;99.90
16301;DHT22;8258;51.020;4.248;2022-12-16T15:46:21;2.60;99.90
16301;DHT22;8258;51.020;4.248;2022-12-16T15:49:15;2.40;99.90
16301;DHT22;8258;51.020;4.248;2022-12-16T15:52:00;2.40;99.90
16301;DHT22;8258;51.020;4.248;2022-12-16T15:54:50;2.20;99.90
16301;DHT22;8258;51.020;4.248;2022-12-16T15:57:36;2.10;99.90
16301;DHT22;8258;51.020;4.248;2022-12-16T16:00:23;2.10;99.90
16301;DHT22;8258;51.020;4.248;2022-12-16T16:03:21;2.00;99.90
16301;DHT22;8258;51.020;4.248;2022-12-16T16:06:14;1.90;99.90
16301;DHT22;8258;51.020;4.248;2022-12-16T16:08:59;1.70;99.90
16301;DHT22;8258;51.020;4.248;2022-12-16T16:11:43;1.50;99.90
16301;DHT22;8258;51.020;4.248;2022-12-16T16:14:28;1.30;99.90
16301;DHT22;8258;51.020;4.248;2022-12-16T16:17:19;1.10;99.90
16301;DHT22;8258;51.020;4.248;2022-12-16T16:20:08;0.90;99.90
16301;DHT22;8258;51.020;4.248;2022-12-16T16:22:56;0.80;99.90
16301;DHT22;8258;51.020;4.248;2022-12-16T16:25:41;0.80;99.90
16301;DHT22;8258;51.020;4.248;2022-12-16T16:28:25;0.70;99.90
16301;DHT22;8258;51.020;4.248;2022-12-16T16:31:09;0.60;99.90
16301;DHT22;8258;51.020;4.248;2022-12-16T16:33:53;0.50;99.90
16301;DHT22;8258;51.020;4.248;2022-12-16T16:36:55;0.40;99.90
16301;DHT22;8258;51.020;4.248;2022-12-16T16:39:41;0.40;99.90
16301;DHT22;8258;51.020;4.248;2022-12-16T16:42:25;0.40;99.90
16301;DHT22;8258;51.020;4.248;2022-12-16T16:45:11;0.40;99.90
16301;DHT22;8258;51.020;4.248;2022-12-16T16:48:04;0.30;99.90
16301;DHT22;8258;51.020;4.248;2022-12-16T16:50:49;0.30;99.90
16301;DHT22;8258;51.020;4.248;2022-12-16T16:53:35;0.10;99.90
16301;DHT22;8258;51.020;4.248;2022-12-16T16:56:25;0.10;99.90
16301;DHT22;8258;51.020;4.248;2022-12-16T16:59:10;0.00;99.90
16301;DHT22;8258;51.020;4.248;2022-12-16T17:01:55;-0.10;99.90
16301;DHT22;8258;51.020;4.248;2022-12-16T17:04:40;-0.10;99.90
16301;DHT22;8258;51.020;4.248;2022-12-16T17:07:24;-0.10;99.90
16301;DHT22;8258;51.020;4.248;2022-12-16T17:10:25;-0.20;99.90
16301;DHT22;8258;51.020;4.248;2022-12-16T17:13:09;-0.30;99.90
16301;DHT22;8258;51.020;4.248;2022-12-16T17:15:53;-0.40;99.90
16301;DHT22;8258;51.020;4.248;2022-12-16T17:18:38;-0.40;99.90
16301;DHT22;8258;51.020;4.248;2022-12-16T17:21:22;-0.50;99.90
16301;DHT22;8258;51.020;4.248;2022-12-16T17:24:06;-0.40;99.90
16301;DHT22;8258;51.020;4.248;2022-12-16T17:26:52;-0.50;99.90
16301;DHT22;8258;51.020;4.248;2022-12-16T17:29:37;-0.50;99.90
16301;DHT22;8258;51.020;4.248;2022-12-16T17:32:21;-0.50;99.90
16301;DHT22;8258;51.020;4.248;2022-12-16T17:35:06;-0.50;99.90
16301;DHT22;8258;51.020;4.248;2022-12-16T17:37:51;-0.60;99.90
16301;DHT22;8258;51.020;4.248;2022-12-16T17:40:35;-0.70;99.90